Time;durP1;ratioP1;P1;durP2;ratioP2;P2;SDS_P1;SDS_P2;PMS_P1;PMS_P2;Temp;Humidity;BMP_temperature;BMP_pressure;BME280_temperature;BME280_humidity;BME280_pressure;Samples;Min_cycle;Max_cycle;Signal;HPM_P1;HPM_P2
2022/01/08 00:00:07;;;;;;;7.10;3.63;;;4.40;94.40;;;;;;5016579;28;20459;-78
2022/01/08 00:02:38;;;;;;;10.57;3.00;;;4.40;94.40;;;;;;5029501;28;20177;-77
2022/01/08 00:05:04;;;;;;;7.03;3.30;;;4.40;94.60;;;;;;5035967;28;20441;-76
2022/01/08 00:07:30;;;;;;;6.87;2.53;;;4.50;94.60;;;;;;5035940;28;20524;-76
2022/01/08 00:09:56;;;;;;;11.97;3.30;;;4.40;94.60;;;;;;5035392;28;21061;-76
2022/01/08 00:12:22;;;;;;;5.10;2.90;;;4.50;94.80;;;;;;5042084;28;20171;-77
2022/01/08 00:14:48;;;;;;;7.90;3.30;;;4.50;94.70;;;;;;5038719;28;20582;-77
2022/01/08 00:17:13;;;;;;;6.47;3.00;;;4.50;94.80;;;;;;5040700;28;20449;-75
2022/01/08 00:19:39;;;;;;;5.43;2.30;;;4.60;94.80;;;;;;5040115;28;20197;-77
2022/01/08 00:22:05;;;;;;;4.37;2.20;;;4.60;94.80;;;;;;5043593;28;20215;-77
2022/01/08 00:24:31;;;;;;;8.57;3.17;;;4.60;94.80;;;;;;5040215;28;20367;-76
2022/01/08 00:26:57;;;;;;;3.33;2.40;;;4.60;94.80;;;;;;5026844;28;20206;-77
2022/01/08 00:29:23;;;;;;;7.63;3.40;;;4.60;94.80;;;;;;5039299;28;20463;-77
2022/01/08 00:31:48;;;;;;;5.93;2.43;;;4.60;94.80;;;;;;5033226;28;20312;-75
2022/01/08 00:34:14;;;;;;;9.20;3.40;;;4.50;94.90;;;;;;5013678;28;20206;-75
2022/01/08 00:36:39;;;;;;;5.20;2.50;;;4.50;95.00;;;;;;5013902;28;20222;-76
2022/01/08 00:39:05;;;;;;;9.70;3.07;;;4.50;95.00;;;;;;5032309;28;20616;-75
2022/01/08 00:41:31;;;;;;;3.70;2.10;;;4.40;95.00;;;;;;5031575;28;20183;-75
2022/01/08 00:43:57;;;;;;;13.33;3.70;;;4.50;95.00;;;;;;5032113;28;20162;-74
2022/01/08 00:46:22;;;;;;;4.10;2.77;;;4.40;95.00;;;;;;5030233;28;20174;-76
2022/01/08 00:48:48;;;;;;;8.23;3.40;;;4.50;95.10;;;;;;5031465;28;20612;-75
2022/01/08 00:51:14;;;;;;;4.47;2.63;;;4.40;95.00;;;;;;5030198;28;20579;-76
2022/01/08 00:53:40;;;;;;;4.73;2.83;;;4.40;95.20;;;;;;5032053;28;20413;-75
2022/01/08 00:56:06;;;;;;;6.77;3.07;;;4.40;95.10;;;;;;5031646;28;20170;-74
2022/01/08 00:58:32;;;;;;;3.60;2.30;;;4.40;95.20;;;;;;5031958;28;20413;-74
2022/01/08 01:00:58;;;;;;;4.30;2.63;;;4.40;95.00;;;;;;5031926;28;20800;-74
2022/01/08 01:03:24;;;;;;;5.03;2.33;;;4.40;95.20;;;;;;5031768;28;20166;-74
2022/01/08 01:05:50;;;;;;;9.90;3.10;;;4.40;95.20;;;;;;5031032;28;20167;-75
2022/01/08 01:08:16;;;;;;;3.73;2.50;;;4.40;95.20;;;;;;5031422;28;20499;-75
2022/01/08 01:10:41;;;;;;;9.30;2.40;;;4.30;95.10;;;;;;5031582;28;20500;-74
2022/01/08 01:13:07;;;;;;;8.80;2.87;;;4.30;95.20;;;;;;5032118;28;20258;-76
2022/01/08 01:15:33;;;;;;;2.93;2.00;;;4.30;95.40;;;;;;5030239;28;20174;-75
2022/01/08 01:17:59;;;;;;;4.60;1.97;;;4.30;95.40;;;;;;5031370;28;20225;-76
2022/01/08 01:20:25;;;;;;;2.70;1.60;;;4.30;95.40;;;;;;5030675;28;20190;-74
2022/01/08 01:22:58;;;;;;;4.07;1.80;;;4.30;95.40;;;;;;5031582;28;20194;-76
2022/01/08 01:25:35;;;;;;;3.67;2.60;;;4.30;95.40;;;;;;5031461;28;20488;-77
2022/01/08 01:28:12;;;;;;;4.63;2.17;;;4.30;95.40;;;;;;5051732;23;20484;-73
2022/01/08 01:31:01;;;;;;;9.60;2.93;;;4.20;95.40;;;;;;5029291;28;20425;-73
2022/01/08 01:47:14;;;;;;;5.10;2.90;;;4.10;96.00;;;;;;5033733;28;20423;-74
2022/01/08 01:49:43;;;;;;;4.20;2.07;;;4.10;96.00;;;;;;5033490;28;20424;-73
2022/01/08 01:52:12;;;;;;;4.50;2.50;;;4.20;96.10;;;;;;5033682;28;20186;-73
2022/01/08 01:54:37;;;;;;;4.27;2.13;;;4.10;96.00;;;;;;5015824;28;20696;-73
2022/01/08 01:57:06;;;;;;;3.70;2.00;;;4.10;96.00;;;;;;5033384;28;20435;-73
2022/01/08 01:59:33;;;;;;;4.20;1.80;;;4.10;96.00;;;;;;5033602;28;20195;-74
2022/01/08 02:02:04;;;;;;;4.30;2.70;;;4.10;96.00;;;;;;5033434;28;20429;-74
2022/01/08 02:04:29;;;;;;;5.53;1.90;;;4.00;96.20;;;;;;5033406;28;20500;-73
2022/01/08 02:06:55;;;;;;;7.70;2.50;;;3.90;96.40;;;;;;5033169;28;20508;-73
2022/01/08 02:09:21;;;;;;;6.20;2.70;;;3.90;96.40;;;;;;4998991;28;20218;-73
2022/01/08 02:12:16;;;;;;;3.80;2.60;;;3.80;96.50;;;;;;5033245;28;20174;-73
2022/01/08 02:14:42;;;;;;;3.80;1.73;;;3.80;96.60;;;;;;5033500;28;20166;-73
2022/01/08 02:17:08;;;;;;;9.00;2.70;;;3.70;96.70;;;;;;5033302;28;20401;-74
2022/01/08 02:19:35;;;;;;;4.13;2.50;;;3.60;96.70;;;;;;5034827;28;20474;-72
2022/01/08 02:22:03;;;;;;;5.07;2.30;;;3.60;96.90;;;;;;5048350;28;20170;-74
2022/01/08 02:24:29;;;;;;;6.00;3.00;;;3.50;97.00;;;;;;5011664;28;20427;-74
2022/01/08 02:26:55;;;;;;;4.83;2.50;;;3.50;97.10;;;;;;5034362;28;20405;-72
2022/01/08 02:29:23;;;;;;;4.87;2.30;;;3.40;97.10;;;;;;5033036;28;20453;-73
2022/01/08 02:32:00;;;;;;;4.40;1.90;;;3.40;97.30;;;;;;5032965;28;20413;-73
2022/01/08 02:34:27;;;;;;;3.13;2.20;;;3.30;97.30;;;;;;5032946;28;20416;-74
2022/01/08 02:36:54;;;;;;;11.40;3.00;;;3.30;97.40;;;;;;5032660;28;20970;-73
2022/01/08 02:39:20;;;;;;;4.50;2.47;;;3.30;97.50;;;;;;5014883;28;20463;-73
2022/01/08 02:41:46;;;;;;;5.50;2.37;;;3.20;97.50;;;;;;5033034;28;20414;-73
2022/01/08 02:44:12;;;;;;;4.00;2.50;;;3.20;97.70;;;;;;5032845;28;20409;-73
2022/01/08 02:46:40;;;;;;;4.53;3.00;;;3.20;97.70;;;;;;5014791;28;20197;-73
2022/01/08 02:49:06;;;;;;;5.73;2.60;;;3.10;97.80;;;;;;5032952;28;20444;-74
2022/01/08 02:51:34;;;;;;;6.70;2.70;;;3.10;97.80;;;;;;5033138;28;20417;-74
2022/01/08 02:54:00;;;;;;;5.80;3.50;;;3.10;97.90;;;;;;5033257;28;20420;-72
2022/01/08 02:56:26;;;;;;;5.00;2.50;;;3.00;97.80;;;;;;5032574;28;20405;-72
2022/01/08 02:58:52;;;;;;;6.30;2.63;;;3.00;97.90;;;;;;5032238;28;20969;-73
2022/01/08 03:01:17;;;;;;;5.43;2.67;;;3.00;98.00;;;;;;5030948;28;20697;-73
2022/01/08 03:03:43;;;;;;;6.53;2.83;;;2.90;98.00;;;;;;5030798;28;20194;-73
2022/01/08 03:06:09;;;;;;;9.10;3.30;;;2.90;98.00;;;;;;5032057;28;20162;-73
2022/01/08 03:08:34;;;;;;;10.07;2.87;;;2.80;98.10;;;;;;5032067;28;20193;-72
2022/01/08 03:11:00;;;;;;;7.07;4.00;;;2.80;98.20;;;;;;5033832;28;20205;-72
2022/01/08 03:13:26;;;;;;;4.30;2.60;;;2.80;98.40;;;;;;5032151;28;20167;-74
2022/01/08 03:15:51;;;;;;;6.07;2.80;;;2.80;98.40;;;;;;5032555;28;20167;-73
2022/01/08 03:18:17;;;;;;;8.30;3.30;;;2.70;98.40;;;;;;5031091;28;20198;-73
2022/01/08 03:20:59;;;;;;;4.97;2.77;;;2.70;98.40;;;;;;5032819;28;20678;-73
2022/01/08 03:23:25;;;;;;;9.17;2.30;;;2.70;98.40;;;;;;5017760;28;20166;-73
2022/01/08 03:25:50;;;;;;;9.03;2.57;;;2.60;98.50;;;;;;5014470;28;20420;-74
2022/01/08 03:28:16;;;;;;;5.97;2.47;;;2.60;98.50;;;;;;5013828;28;20433;-74
2022/01/08 03:30:41;;;;;;;6.33;3.23;;;2.60;98.50;;;;;;5031287;28;20186;-73
2022/01/08 03:33:07;;;;;;;7.33;2.50;;;2.50;98.60;;;;;;5031413;28;20163;-72
2022/01/08 03:35:33;;;;;;;7.70;2.67;;;2.50;98.70;;;;;;5031329;28;20163;-72
2022/01/08 03:38:00;;;;;;;9.70;3.50;;;2.50;98.70;;;;;;5031599;28;20484;-72
2022/01/08 03:40:26;;;;;;;8.70;3.13;;;2.50;98.80;;;;;;5030557;28;20446;-72
2022/01/08 03:42:51;;;;;;;7.70;2.70;;;2.50;98.90;;;;;;5031638;28;20500;-72
2022/01/08 03:45:17;;;;;;;10.57;2.90;;;2.50;98.90;;;;;;5031153;28;20500;-73
2022/01/08 03:50:14;;;;;;;9.93;3.37;;;2.60;98.70;;;;;;5013819;28;20174;-72
2022/01/08 03:52:40;;;;;;;7.70;2.83;;;2.60;98.60;;;;;;5031375;28;20496;-74
2022/01/08 03:55:06;;;;;;;5.50;3.10;;;2.50;98.60;;;;;;5031206;28;20421;-73
2022/01/08 03:57:32;;;;;;;9.93;5.10;;;2.50;98.60;;;;;;5032020;28;20166;-73
2022/01/08 03:59:58;;;;;;;7.50;3.40;;;2.40;98.70;;;;;;5031180;28;20559;-73
2022/01/08 04:02:23;;;;;;;6.53;3.60;;;2.40;98.80;;;;;;5031016;28;20591;-73
2022/01/08 04:04:49;;;;;;;6.90;3.53;;;2.30;98.80;;;;;;5031532;28;20158;-72
2022/01/08 04:07:15;;;;;;;7.87;5.20;;;2.30;98.90;;;;;;5030887;28;20571;-72
2022/01/08 04:09:41;;;;;;;11.20;4.97;;;2.30;98.90;;;;;;5030085;28;20289;-72
2022/01/08 04:12:08;;;;;;;13.47;5.97;;;2.30;99.10;;;;;;5013732;28;20201;-73
2022/01/08 04:14:51;;;;;;;9.83;6.23;;;2.30;99.20;;;;;;5032082;28;20507;-72
2022/01/08 04:17:17;;;;;;;15.13;7.20;;;2.20;99.10;;;;;;5030992;28;20413;-73
2022/01/08 04:19:43;;;;;;;14.33;8.00;;;2.20;99.30;;;;;;5031360;28;20507;-72
2022/01/08 04:22:12;;;;;;;10.80;6.70;;;2.20;99.40;;;;;;5031095;28;20579;-72
2022/01/08 04:24:39;;;;;;;20.13;8.00;;;2.20;99.50;;;;;;5031227;28;20915;-73
2022/01/08 04:27:04;;;;;;;18.50;7.83;;;2.20;99.60;;;;;;5030885;28;20970;-72
2022/01/08 04:29:30;;;;;;;11.80;6.70;;;2.30;99.80;;;;;;5030638;28;20535;-73
2022/01/08 04:31:56;;;;;;;21.63;8.93;;;2.30;99.70;;;;;;5030949;28;20169;-73
2022/01/08 04:34:21;;;;;;;16.97;8.20;;;2.30;99.80;;;;;;5013581;28;20212;-73
2022/01/08 04:36:47;;;;;;;18.77;8.43;;;2.40;99.70;;;;;;5033549;28;20300;-73
2022/01/08 04:39:13;;;;;;;12.83;8.43;;;2.40;99.60;;;;;;5033901;28;20182;-73
2022/01/08 04:41:41;;;;;;;13.23;7.43;;;2.40;99.50;;;;;;5016089;28;20184;-73
2022/01/08 04:44:08;;;;;;;16.00;8.80;;;2.40;99.50;;;;;;5031664;28;20166;-73
2022/01/08 04:46:33;;;;;;;19.90;9.77;;;2.40;99.50;;;;;;5029982;28;20473;-71
2022/01/08 04:48:59;;;;;;;12.13;7.77;;;2.40;99.50;;;;;;5030862;28;20468;-73
2022/01/08 04:51:25;;;;;;;17.70;10.50;;;2.40;99.50;;;;;;5031011;28;20523;-73
2022/01/08 04:53:51;;;;;;;13.67;8.50;;;2.40;99.60;;;;;;5030464;28;20401;-72
2022/01/08 04:56:16;;;;;;;18.93;8.83;;;2.40;99.60;;;;;;5012750;28;20166;-72
2022/01/08 04:58:42;;;;;;;11.60;7.00;;;2.40;99.60;;;;;;5030311;28;20186;-73
2022/01/08 05:01:16;;;;;;;13.87;8.00;;;2.40;99.50;;;;;;5012507;28;20194;-73
2022/01/08 05:03:42;;;;;;;12.23;7.20;;;2.30;99.40;;;;;;5012557;28;20201;-72
2022/01/08 05:06:08;;;;;;;13.87;8.47;;;2.30;99.50;;;;;;5030623;28;20447;-73
2022/01/08 05:08:33;;;;;;;17.57;9.20;;;2.30;99.70;;;;;;5030424;28;20664;-72
2022/01/08 05:10:59;;;;;;;14.43;7.77;;;2.20;99.60;;;;;;5030360;28;20178;-72
2022/01/08 05:13:25;;;;;;;13.30;8.10;;;2.20;99.70;;;;;;5033375;28;20189;-73
2022/01/08 05:15:51;;;;;;;14.17;8.50;;;2.20;99.80;;;;;;5034520;28;20177;-73
2022/01/08 05:18:16;;;;;;;13.23;8.97;;;2.20;99.80;;;;;;5017193;28;20386;-73
2022/01/08 05:20:51;;;;;;;23.33;9.73;;;2.20;99.70;;;;;;5034977;28;20467;-73
2022/01/08 05:23:17;;;;;;;20.27;11.23;;;2.20;99.70;;;;;;5035572;28;20203;-73
2022/01/08 05:25:42;;;;;;;18.73;10.73;;;2.20;99.80;;;;;;5034527;28;20490;-72
2022/01/08 05:28:08;;;;;;;16.13;9.47;;;2.10;99.80;;;;;;5034038;28;20201;-72
2022/01/08 05:30:34;;;;;;;16.50;8.40;;;2.10;99.80;;;;;;5034393;28;20166;-73
2022/01/08 05:33:00;;;;;;;20.73;9.60;;;2.10;99.80;;;;;;5034289;28;20667;-73
2022/01/08 05:35:27;;;;;;;22.83;10.40;;;2.10;99.90;;;;;;5033891;28;20166;-73
2022/01/08 05:37:53;;;;;;;16.37;10.17;;;2.00;99.90;;;;;;5034709;28;20218;-73
2022/01/08 05:40:20;;;;;;;18.07;9.90;;;2.00;99.90;;;;;;5034474;28;20441;-73
2022/01/08 05:42:46;;;;;;;18.33;10.30;;;1.90;99.90;;;;;;5034012;28;20436;-74
2022/01/08 05:45:12;;;;;;;15.13;8.40;;;1.90;99.90;;;;;;5034044;28;20412;-73
2022/01/08 05:47:38;;;;;;;21.70;10.07;;;1.90;99.90;;;;;;5034074;28;20401;-73
2022/01/08 05:50:06;;;;;;;17.30;10.60;;;1.90;99.90;;;;;;5033933;28;20405;-74
2022/01/08 05:52:32;;;;;;;15.80;9.37;;;1.80;99.90;;;;;;5033834;28;20413;-73
2022/01/08 05:54:57;;;;;;;21.43;11.23;;;1.80;99.90;;;;;;5033768;28;20826;-73
2022/01/08 05:57:23;;;;;;;19.47;11.03;;;1.80;99.90;;;;;;5033853;28;20227;-73
2022/01/08 05:59:49;;;;;;;18.03;10.00;;;1.80;99.90;;;;;;5019416;28;20210;-73
2022/01/08 06:02:15;;;;;;;17.50;9.67;;;1.80;99.90;;;;;;5049335;28;20229;-73
2022/01/08 06:04:41;;;;;;;17.33;9.37;;;1.80;99.90;;;;;;5050324;28;20174;-72
2022/01/08 06:07:06;;;;;;;18.73;9.87;;;1.80;99.90;;;;;;5033621;28;20411;-73
2022/01/08 06:09:32;;;;;;;15.10;10.70;;;1.70;99.90;;;;;;5033679;28;20275;-73
2022/01/08 06:11:58;;;;;;;20.33;10.50;;;1.80;99.90;;;;;;5015948;28;20166;-73
2022/01/08 06:14:23;;;;;;;23.50;9.90;;;1.70;99.90;;;;;;5015415;28;20171;-73
2022/01/08 06:16:49;;;;;;;17.27;10.03;;;1.80;99.90;;;;;;5015683;28;20274;-73
2022/01/08 06:19:17;;;;;;;12.70;9.63;;;1.80;99.90;;;;;;5015642;28;20182;-73
2022/01/08 06:21:43;;;;;;;19.37;8.90;;;1.80;99.90;;;;;;5033400;28;20409;-73
2022/01/08 06:24:09;;;;;;;19.37;11.80;;;1.70;99.90;;;;;;5032386;28;20804;-74
2022/01/08 06:26:35;;;;;;;19.00;10.30;;;1.70;99.90;;;;;;5032895;28;20225;-74
2022/01/08 06:29:01;;;;;;;16.40;9.40;;;1.70;99.90;;;;;;5032942;28;20433;-74
2022/01/08 06:31:27;;;;;;;20.63;9.80;;;1.70;99.90;;;;;;5033204;28;20266;-74
2022/01/08 06:33:53;;;;;;;23.43;9.20;;;1.70;99.90;;;;;;5015027;28;20436;-74
2022/01/08 06:36:19;;;;;;;21.27;9.13;;;1.70;99.90;;;;;;5033042;28;20467;-74
2022/01/08 06:38:46;;;;;;;18.60;10.27;;;1.70;99.90;;;;;;5033415;28;20447;-73
2022/01/08 06:41:12;;;;;;;15.63;9.43;;;1.70;99.90;;;;;;5033149;28;20506;-74
2022/01/08 06:43:38;;;;;;;19.13;10.37;;;1.70;99.90;;;;;;4999984;28;20418;-73
2022/01/08 06:46:04;;;;;;;15.03;8.47;;;1.70;99.90;;;;;;5034125;28;20401;-73
2022/01/08 06:48:30;;;;;;;17.80;9.50;;;1.70;99.90;;;;;;5032325;28;20495;-74
2022/01/08 06:50:56;;;;;;;28.23;10.93;;;1.70;99.90;;;;;;5032653;28;20479;-75
2022/01/08 06:53:22;;;;;;;17.37;9.57;;;1.80;99.90;;;;;;5033033;28;20171;-74
2022/01/08 06:55:48;;;;;;;13.83;8.67;;;1.80;99.90;;;;;;5014577;28;20245;-73
2022/01/08 06:58:14;;;;;;;24.47;10.93;;;1.80;99.90;;;;;;5032340;28;21044;-73
2022/01/08 07:00:40;;;;;;;21.60;11.10;;;1.80;99.90;;;;;;5014385;28;20197;-73
2022/01/08 07:03:09;;;;;;;11.80;9.00;;;1.80;99.90;;;;;;5014647;28;20988;-75
2022/01/08 07:05:36;;;;;;;18.77;9.63;;;1.80;99.90;;;;;;5032275;28;20816;-73
2022/01/08 07:08:02;;;;;;;17.27;9.37;;;1.80;99.90;;;;;;5032307;28;20459;-72
2022/01/08 07:10:28;;;;;;;16.30;8.50;;;1.70;99.90;;;;;;5032375;28;20413;-73
2022/01/08 07:12:54;;;;;;;17.40;9.73;;;1.80;99.90;;;;;;5032061;28;20792;-74
2022/01/08 07:15:19;;;;;;;17.30;9.30;;;1.70;99.90;;;;;;5032066;28;20166;-73
2022/01/08 07:17:46;;;;;;;15.63;9.40;;;1.80;99.90;;;;;;5032452;28;20181;-73
2022/01/08 07:20:12;;;;;;;14.00;8.20;;;1.80;99.90;;;;;;5014280;28;20202;-73
2022/01/08 07:22:38;;;;;;;23.17;9.70;;;1.70;99.90;;;;;;5032291;28;20431;-74
2022/01/08 07:25:05;;;;;;;20.77;9.00;;;1.80;99.90;;;;;;5031635;28;20479;-73
2022/01/08 07:27:32;;;;;;;20.37;11.10;;;1.80;99.90;;;;;;5031753;28;20416;-75
2022/01/08 07:30:03;;;;;;;19.23;9.50;;;1.80;99.90;;;;;;5054414;22;20500;-76
2022/01/08 07:32:29;;;;;;;23.73;10.30;;;1.80;99.90;;;;;;5032001;28;20548;-76
2022/01/08 07:34:54;;;;;;;18.40;8.93;;;1.80;99.90;;;;;;5032813;28;20421;-76
2022/01/08 07:37:20;;;;;;;18.10;11.33;;;1.80;99.90;;;;;;5032792;28;20177;-76
2022/01/08 07:39:46;;;;;;;22.90;10.87;;;1.80;99.90;;;;;;5047331;28;20669;-75
2022/01/08 07:42:12;;;;;;;20.63;9.73;;;1.80;99.90;;;;;;5052020;28;20565;-76
2022/01/08 07:44:39;;;;;;;23.60;10.80;;;1.80;99.90;;;;;;5034799;28;20822;-74
2022/01/08 07:47:06;;;;;;;19.90;12.07;;;1.80;99.90;;;;;;5051940;28;20984;-75
2022/01/08 07:49:32;;;;;;;17.70;10.93;;;1.90;99.90;;;;;;5034671;28;20962;-75
2022/01/08 07:51:58;;;;;;;21.80;11.47;;;1.90;99.90;;;;;;5053152;28;20431;-75
2022/01/08 07:54:24;;;;;;;24.17;10.20;;;2.00;99.90;;;;;;5034693;28;20408;-76
2022/01/08 07:56:50;;;;;;;17.57;10.80;;;2.10;99.90;;;;;;5034177;28;20178;-75
2022/01/08 07:59:16;;;;;;;16.70;8.80;;;2.20;99.90;;;;;;5051557;28;20546;-76
2022/01/08 08:01:41;;;;;;;21.20;10.50;;;2.30;99.90;;;;;;5052081;28;20169;-76
2022/01/08 08:04:07;;;;;;;21.40;10.87;;;2.50;99.90;;;;;;5051990;28;20166;-76
2022/01/08 08:06:36;;;;;;;18.50;10.00;;;2.60;99.90;;;;;;5051294;28;20603;-76
2022/01/08 08:09:02;;;;;;;14.13;9.00;;;2.60;99.90;;;;;;5033913;28;20654;-76
2022/01/08 08:11:28;;;;;;;24.07;9.47;;;2.70;99.90;;;;;;5051745;28;20930;-76
2022/01/08 08:13:54;;;;;;;17.73;9.43;;;2.80;99.90;;;;;;5047537;28;20442;-77
2022/01/08 08:16:20;;;;;;;17.97;9.07;;;2.80;99.80;;;;;;5051566;28;20166;-75
2022/01/08 08:18:46;;;;;;;14.50;7.77;;;2.90;99.40;;;;;;5033583;28;20697;-74
2022/01/08 08:21:12;;;;;;;25.53;9.43;;;2.90;99.20;;;;;;5033561;28;20452;-74
2022/01/08 08:23:37;;;;;;;17.20;9.10;;;2.90;99.30;;;;;;5044929;28;20736;-74
2022/01/08 08:26:03;;;;;;;23.40;11.17;;;2.90;99.10;;;;;;5047454;28;20678;-76
2022/01/08 08:28:30;;;;;;;17.10;8.87;;;2.90;99.10;;;;;;5031397;28;20659;-76
2022/01/08 08:30:56;;;;;;;14.63;9.20;;;2.90;98.90;;;;;;5051264;28;20178;-75
2022/01/08 08:33:22;;;;;;;16.80;8.60;;;3.00;99.00;;;;;;5052831;28;20420;-75
2022/01/08 08:35:48;;;;;;;15.10;8.27;;;3.10;99.10;;;;;;5035183;28;20183;-73
2022/01/08 08:38:14;;;;;;;21.03;7.77;;;3.20;98.70;;;;;;5018959;28;20957;-75
2022/01/08 08:40:40;;;;;;;13.00;7.27;;;3.30;98.30;;;;;;5059899;28;20196;-74
2022/01/08 08:43:06;;;;;;;20.10;9.40;;;3.40;97.80;;;;;;5033919;28;20804;-74
2022/01/08 08:45:32;;;;;;;17.43;8.53;;;3.40;97.70;;;;;;5050248;28;20453;-75
2022/01/08 08:47:57;;;;;;;14.80;7.93;;;3.40;97.50;;;;;;5038958;28;20833;-74
2022/01/08 08:50:24;;;;;;;12.67;7.07;;;3.40;97.50;;;;;;5029498;28;20420;-75
2022/01/08 08:52:50;;;;;;;25.13;8.77;;;3.30;97.50;;;;;;5041278;28;20208;-75
2022/01/08 08:55:18;;;;;;;13.60;8.63;;;3.40;97.70;;;;;;5057877;28;20952;-74
2022/01/08 08:57:45;;;;;;;14.03;6.20;;;3.40;97.60;;;;;;5039908;28;20451;-74
2022/01/08 09:00:11;;;;;;;16.30;6.97;;;3.60;97.10;;;;;;5058387;28;20467;-74
2022/01/08 09:02:37;;;;;;;10.60;6.80;;;3.70;97.10;;;;;;5057581;28;20407;-74
2022/01/08 09:05:04;;;;;;;15.97;8.80;;;3.80;96.50;;;;;;5057168;28;20827;-74
2022/01/08 09:07:30;;;;;;;14.30;8.30;;;4.00;96.20;;;;;;5036450;28;20181;-76
2022/01/08 09:09:55;;;;;;;14.57;7.20;;;4.10;96.20;;;;;;5060789;28;20444;-76
2022/01/08 09:12:21;;;;;;;11.47;8.00;;;4.20;95.20;;;;;;5044095;28;20482;-75
2022/01/08 09:14:47;;;;;;;21.33;7.53;;;4.10;94.40;;;;;;5042052;28;20212;-73
2022/01/08 09:17:14;;;;;;;16.10;6.80;;;4.20;95.00;;;;;;5036470;28;20947;-74
2022/01/08 09:19:41;;;;;;;9.17;6.10;;;4.40;96.60;;;;;;5043001;28;20558;-76
2022/01/08 09:22:07;;;;;;;15.70;5.23;;;4.50;94.20;;;;;;5060006;28;20438;-75
2022/01/08 09:24:36;;;;;;;11.40;5.00;;;4.70;93.90;;;;;;5026230;28;20448;-75
2022/01/08 09:27:03;;;;;;;8.23;5.73;;;4.80;94.20;;;;;;5051837;28;20177;-75
2022/01/08 09:29:28;;;;;;;15.80;6.37;;;5.00;94.10;;;;;;5064780;28;20455;-75
2022/01/08 09:31:54;;;;;;;10.27;5.70;;;5.20;93.40;;;;;;5052033;28;20901;-75
2022/01/08 09:34:20;;;;;;;12.23;5.23;;;5.40;92.30;;;;;;5049541;28;20177;-76
2022/01/08 09:36:46;;;;;;;11.80;5.03;;;5.70;92.40;;;;;;5065032;28;20419;-75
2022/01/08 09:39:13;;;;;;;7.30;4.87;;;6.40;91.40;;;;;;5034960;28;20251;-76
2022/01/08 09:41:38;;;;;;;14.23;5.30;;;7.30;90.00;;;;;;5065230;28;20411;-74
2022/01/08 09:44:04;;;;;;;11.63;5.00;;;7.90;82.90;;;;;;5065669;28;20937;-74
2022/01/08 09:46:30;;;;;;;15.37;9.10;;;8.20;78.50;;;;;;5061151;28;20549;-76
2022/01/08 09:48:56;;;;;;;18.17;5.87;;;8.20;76.10;;;;;;5061074;28;20444;-74
2022/01/08 09:51:22;;;;;;;11.83;5.80;;;8.00;73.90;;;;;;5060599;28;20174;-75
2022/01/08 09:53:47;;;;;;;7.10;4.00;;;7.80;76.70;;;;;;5060067;28;20216;-76
2022/01/08 09:56:14;;;;;;;6.93;3.57;;;7.70;77.20;;;;;;5061471;28;20239;-74
2022/01/08 09:58:39;;;;;;;12.23;4.80;;;7.60;76.60;;;;;;5056904;28;20240;-75
2022/01/08 10:01:22;;;;;;;10.50;5.53;;;7.40;77.30;;;;;;5057429;28;20459;-74
2022/01/08 10:03:48;;;;;;;13.50;8.50;;;7.00;76.90;;;;;;5037074;28;20504;-75
2022/01/08 10:06:24;;;;;;;10.43;4.97;;;6.70;79.50;;;;;;5045018;28;20596;-74
2022/01/08 10:08:51;;;;;;;7.03;4.30;;;6.40;79.90;;;;;;5058408;28;20655;-75
2022/01/08 10:11:17;;;;;;;10.83;5.40;;;6.10;80.70;;;;;;5061193;28;20432;-73
2022/01/08 10:13:43;;;;;;;8.00;4.37;;;5.90;83.10;;;;;;5072507;28;20384;-73
2022/01/08 10:19:00;;;;;;;8.40;4.30;;;5.60;83.90;;;;;;5056772;28;20458;-74
2022/01/08 10:21:29;;;;;;;13.00;5.17;;;5.60;85.30;;;;;;5022420;28;20467;-74
2022/01/08 10:23:59;;;;;;;10.40;6.73;;;5.50;85.00;;;;;;5023300;28;20494;-75
2022/01/08 10:26:31;;;;;;;7.27;4.63;;;5.50;86.40;;;;;;5040862;28;20491;-74
2022/01/08 10:29:02;;;;;;;8.40;3.70;;;5.50;85.10;;;;;;5051278;28;20984;-75
2022/01/08 10:31:29;;;;;;;5.10;3.80;;;5.40;85.90;;;;;;5043050;28;20484;-75
2022/01/08 10:34:00;;;;;;;6.07;3.93;;;5.30;85.40;;;;;;5027525;28;20428;-74
2022/01/08 10:36:31;;;;;;;14.23;8.23;;;5.10;85.80;;;;;;5054343;28;20420;-73
2022/01/08 10:38:59;;;;;;;7.67;3.80;;;5.10;86.50;;;;;;5056542;28;20498;-74
2022/01/08 10:41:27;;;;;;;4.37;3.20;;;5.00;87.20;;;;;;5061114;28;20464;-75
2022/01/08 10:44:13;;;;;;;6.23;3.10;;;4.90;87.00;;;;;;5053222;28;20526;-72
2022/01/08 10:46:54;;;;;;;6.67;3.60;;;4.90;87.00;;;;;;5030844;28;20686;-74
2022/01/08 10:49:33;;;;;;;6.37;3.77;;;4.90;88.10;;;;;;5048598;28;20428;-74
2022/01/08 10:52:14;;;;;;;6.20;4.03;;;5.10;88.50;;;;;;5035011;28;20428;-72
2022/01/08 10:54:42;;;;;;;4.73;3.20;;;5.30;87.80;;;;;;5050723;28;20447;-73
2022/01/08 10:57:09;;;;;;;4.33;2.83;;;5.40;85.40;;;;;;5032645;28;20520;-73
2022/01/08 10:59:36;;;;;;;16.60;3.50;;;5.50;84.10;;;;;;5056464;28;20474;-73
2022/01/08 11:02:04;;;;;;;6.87;3.70;;;5.50;83.60;;;;;;5055950;28;20412;-72
2022/01/08 11:04:39;;;;;;;6.60;3.90;;;5.60;84.60;;;;;;5056020;28;20431;-74
2022/01/08 11:07:22;;;;;;;6.03;2.90;;;5.80;84.00;;;;;;5043683;28;20435;-73
2022/01/08 11:10:04;;;;;;;7.53;3.20;;;5.80;80.50;;;;;;5034630;28;20436;-74
2022/01/08 11:12:35;;;;;;;13.37;4.00;;;5.80;81.00;;;;;;5035355;28;20984;-74
2022/01/08 11:15:24;;;;;;;5.27;2.43;;;5.70;82.00;;;;;;5038965;28;20420;-74
2022/01/08 11:17:55;;;;;;;7.57;2.73;;;5.60;81.80;;;;;;5054746;28;20662;-74
2022/01/08 11:20:23;;;;;;;10.20;3.70;;;5.60;80.70;;;;;;5048157;28;20447;-74
2022/01/08 11:22:51;;;;;;;11.30;3.43;;;5.60;81.00;;;;;;5034982;28;20485;-74
2022/01/08 11:25:26;;;;;;;7.33;3.90;;;5.50;79.70;;;;;;5036062;28;20562;-74
2022/01/08 11:28:11;;;;;;;9.60;4.13;;;5.40;80.80;;;;;;5046487;28;20427;-75
2022/01/08 11:30:47;;;;;;;11.23;5.90;;;5.50;82.20;;;;;;5054641;28;20855;-75
2022/01/08 11:33:21;;;;;;;6.53;3.40;;;5.70;83.10;;;;;;5044883;28;20427;-74
2022/01/08 11:35:49;;;;;;;7.53;3.80;;;5.80;80.00;;;;;;5057394;28;20435;-74
2022/01/08 11:38:18;;;;;;;7.20;4.17;;;5.80;79.70;;;;;;5057478;28;20490;-73
2022/01/08 11:40:46;;;;;;;7.90;3.77;;;5.80;77.80;;;;;;5055437;28;21050;-75
2022/01/08 11:43:15;;;;;;;6.93;3.40;;;5.70;78.20;;;;;;5056840;28;20531;-75
2022/01/08 11:45:50;;;;;;;8.63;4.30;;;5.60;78.70;;;;;;5053819;28;20489;-76
2022/01/08 11:48:19;;;;;;;7.57;3.43;;;5.60;78.80;;;;;;5045813;28;20452;-75
2022/01/08 11:50:52;;;;;;;4.93;3.10;;;5.40;78.60;;;;;;5046546;28;20459;-76
2022/01/08 11:53:27;;;;;;;9.27;3.23;;;5.30;79.20;;;;;;5033956;28;20857;-75
2022/01/08 11:55:54;;;;;;;6.80;3.40;;;5.20;79.40;;;;;;5049625;28;20442;-74
2022/01/08 11:58:20;;;;;;;8.60;3.13;;;5.20;80.20;;;;;;5046703;28;20972;-75
2022/01/08 12:00:49;;;;;;;6.27;3.00;;;5.30;80.20;;;;;;5017154;28;20463;-73
2022/01/08 12:03:28;;;;;;;16.43;5.07;;;5.40;80.80;;;;;;5049864;28;20200;-75
2022/01/08 12:05:54;;;;;;;8.70;3.00;;;5.60;81.40;;;;;;5052136;28;20424;-74
2022/01/08 12:08:46;;;;;;;17.87;3.30;;;5.70;77.00;;;;;;5053459;28;20817;-76
2022/01/08 12:11:11;;;;;;;5.07;2.53;;;5.80;76.70;;;;;;5048093;28;21143;-73
2022/01/08 12:13:47;;;;;;;10.33;2.93;;;5.70;75.30;;;;;;5049281;28;20432;-74
2022/01/08 12:16:35;;;;;;;8.10;3.53;;;5.80;76.60;;;;;;5054909;28;20182;-77
2022/01/08 12:19:03;;;;;;;7.73;2.60;;;5.90;76.30;;;;;;5055004;28;20452;-74
2022/01/08 12:21:32;;;;;;;5.17;2.87;;;5.90;74.20;;;;;;5054724;28;20980;-75
2022/01/08 12:24:01;;;;;;;5.33;2.23;;;5.80;74.50;;;;;;5040343;28;20428;-73
2022/01/08 12:26:26;;;;;;;6.83;2.07;;;5.70;74.60;;;;;;5064000;28;20766;-76
2022/01/08 12:29:00;;;;;;;14.13;6.10;;;5.60;75.10;;;;;;5064993;28;20537;-74
2022/01/08 12:31:38;;;;;;;13.47;3.77;;;5.50;76.20;;;;;;5044476;28;20532;-76
2022/01/08 12:34:26;;;;;;;9.60;2.70;;;5.60;77.10;;;;;;5066277;28;20438;-76
2022/01/08 12:37:00;;;;;;;8.07;2.30;;;5.70;75.40;;;;;;5041256;28;20423;-76
2022/01/08 12:39:48;;;;;;;3.40;2.73;;;5.70;75.20;;;;;;5054300;28;20474;-75
2022/01/08 12:42:22;;;;;;;4.17;2.47;;;5.60;76.20;;;;;;5052338;28;20432;-76
2022/01/08 12:45:30;;;;;;;6.53;2.43;;;5.70;76.60;;;;;;5051600;28;20481;-76
2022/01/08 12:48:08;;;;;;;4.40;3.20;;;5.60;76.20;;;;;;5052324;28;20430;-76
2022/01/08 12:50:42;;;;;;;6.20;3.53;;;5.40;76.20;;;;;;5054553;28;20435;-75
2022/01/08 12:53:09;;;;;;;8.93;3.80;;;5.40;77.50;;;;;;5050172;28;20793;-76
2022/01/08 12:56:05;;;;;;;5.10;2.23;;;5.40;78.20;;;;;;5050290;28;20480;-75
2022/01/08 12:58:33;;;;;;;7.90;2.80;;;5.40;77.50;;;;;;5048857;28;20471;-76
2022/01/08 13:01:05;;;;;;;12.23;5.73;;;5.40;77.80;;;;;;5054873;28;20483;-75
2022/01/08 13:03:32;;;;;;;6.00;3.20;;;5.40;77.90;;;;;;5040208;28;20421;-76
2022/01/08 13:06:18;;;;;;;7.10;2.73;;;5.40;77.60;;;;;;5028500;28;20784;-76
2022/01/08 13:08:46;;;;;;;8.30;3.30;;;5.50;78.70;;;;;;5056064;28;20432;-75
2022/01/08 13:11:17;;;;;;;6.50;3.43;;;5.60;78.60;;;;;;5037364;28;20443;-76
2022/01/08 13:13:51;;;;;;;8.23;2.87;;;5.60;78.00;;;;;;5042648;28;20413;-75